createdAt,value
2018-07-25T00:01:52.745Z,100312.55
2018-07-25T00:04:21.352Z,100312.17
2018-07-25T00:06:49.662Z,100312.55
2018-07-25T00:09:17.995Z,100318.57
2018-07-25T00:11:46.366Z,100310.87
2018-07-25T00:14:14.744Z,100314.52
2018-07-25T00:16:43.060Z,100316.30
2018-07-25T00:19:11.695Z,100316.55
2018-07-25T00:21:40.024Z,100315.09
2018-07-25T00:24:08.390Z,100308.22
2018-07-25T00:26:36.703Z,100307.02
2018-07-25T00:29:05.011Z,100302.72
2018-07-25T00:31:33.408Z,100306.42
2018-07-25T00:34:01.835Z,100305.81
2018-07-25T00:36:30.185Z,100304.98
2018-07-25T00:38:58.551Z,100308.91
2018-07-25T00:41:26.980Z,100306.62
2018-07-25T00:43:55.346Z,100311.13
2018-07-25T00:46:23.668Z,100306.01
2018-07-25T00:48:52.032Z,100311.09
2018-07-25T00:51:20.384Z,100313.91
2018-07-25T00:53:48.725Z,100311.28
2018-07-25T00:56:17.058Z,100311.24
2018-07-25T00:58:48.365Z,100307.31
2018-07-25T01:01:16.744Z,100305.96
2018-07-25T01:03:45.129Z,100303.17
2018-07-25T01:06:13.446Z,100308.83
2018-07-25T01:08:41.806Z,100308.67
2018-07-25T01:11:10.120Z,100314.63
2018-07-25T01:13:38.461Z,100314.03
2018-07-25T01:16:07.223Z,100315.20
2018-07-25T01:18:35.575Z,100320.60
2018-07-25T01:21:04.001Z,100316.59
2018-07-25T01:23:32.561Z,100317.64
2018-07-25T01:26:00.955Z,100318.89
2018-07-25T01:28:29.314Z,100317.66
2018-07-25T01:30:57.707Z,100315.50
2018-07-25T01:33:26.071Z,100314.17
2018-07-25T01:35:54.428Z,100322.73
2018-07-25T01:38:22.812Z,100318.09
2018-07-25T01:40:51.165Z,100316.85
2018-07-25T01:43:19.522Z,100314.69
2018-07-25T01:45:47.975Z,100318.09
2018-07-25T01:48:16.306Z,100321.53
2018-07-25T01:50:44.654Z,100322.69
2018-07-25T01:53:13.006Z,100319.59
2018-07-25T01:55:41.390Z,100323.25
2018-07-25T01:58:09.699Z,100321.60
2018-07-25T02:00:38.360Z,100322.02
2018-07-25T02:03:07.320Z,100322.81
2018-07-25T02:05:35.637Z,100320.87
2018-07-25T02:08:04.057Z,100324.97
2018-07-25T02:10:36.562Z,100325.51
2018-07-25T02:13:04.880Z,100319.47
2018-07-25T02:15:33.730Z,100321.59
2018-07-25T02:18:02.121Z,100323.86
2018-07-25T02:20:31.525Z,100331.52
2018-07-25T02:23:00.326Z,100331.83
2018-07-25T02:25:29.063Z,100334.63
2018-07-25T02:27:57.397Z,100334.02
2018-07-25T02:30:25.927Z,100341.58
2018-07-25T02:32:54.226Z,100337.12
2018-07-25T02:35:22.527Z,100334.25
2018-07-25T02:37:50.833Z,100335.86
2018-07-25T02:40:19.663Z,100338.30
2018-07-25T02:42:48.258Z,100339.70
2018-07-25T02:45:16.811Z,100340.48
2018-07-25T02:47:45.385Z,100340.22
2018-07-25T02:50:13.989Z,100337.44
2018-07-25T02:52:42.348Z,100342.09
2018-07-25T02:55:11.219Z,100343.39
2018-07-25T02:57:39.584Z,100336.72
2018-07-25T03:00:08.120Z,100345.09
2018-07-25T03:02:36.449Z,100340.23
2018-07-25T03:05:05.312Z,100347.05
2018-07-25T03:07:34.600Z,100349.22
2018-07-25T03:10:03.869Z,100355.77
2018-07-25T03:12:32.235Z,100359.94
2018-07-25T03:15:00.534Z,100367.69
2018-07-25T03:17:28.859Z,100357.84
2018-07-25T03:19:57.176Z,100362.63
2018-07-25T03:22:25.919Z,100358.96
2018-07-25T03:24:54.255Z,100365.27
2018-07-25T03:27:22.615Z,100368.63
2018-07-25T03:29:51.549Z,100368.06
2018-07-25T03:32:20.903Z,100373.66
2018-07-25T03:34:49.312Z,100368.67
2018-07-25T03:37:18.015Z,100368.30
2018-07-25T03:39:46.346Z,100373.59
2018-07-25T03:42:14.689Z,100376.09
2018-07-25T03:44:42.991Z,100373.33
2018-07-25T03:47:11.535Z,100366.81
2018-07-25T03:49:39.959Z,100376.30
2018-07-25T03:52:08.264Z,100377.59
2018-07-25T03:54:36.584Z,100375.38
2018-07-25T03:57:05.114Z,100382.34
2018-07-25T03:59:33.453Z,100377.23
2018-07-25T04:02:01.857Z,100384.01
2018-07-25T04:04:31.155Z,100390.59
2018-07-25T04:06:59.460Z,100391.17
2018-07-25T04:09:29.097Z,100393.02
2018-07-25T04:11:57.445Z,100391.62
2018-07-25T04:14:26.043Z,100385.77
2018-07-25T04:16:54.457Z,100395.05
2018-07-25T04:19:22.788Z,100395.80
2018-07-25T04:21:51.143Z,100392.46
2018-07-25T04:24:19.432Z,100398.59
2018-07-25T04:26:48.009Z,100392.55
2018-07-25T04:29:16.343Z,100396.52
2018-07-25T04:31:46.726Z,100397.92
2018-07-25T04:34:15.231Z,100400.06
2018-07-25T04:36:43.890Z,100397.06
2018-07-25T04:39:15.616Z,100403.84
2018-07-25T04:41:44.104Z,100398.20
2018-07-25T04:44:12.433Z,100393.25
2018-07-25T04:46:40.806Z,100402.28
2018-07-25T04:49:09.138Z,100404.59
2018-07-25T04:51:37.492Z,100403.56
2018-07-25T04:54:05.854Z,100406.73
2018-07-25T04:56:34.450Z,100407.83
2018-07-25T04:59:03.122Z,100412.27
2018-07-25T05:01:31.799Z,100407.23
2018-07-25T05:04:00.153Z,100411.66
2018-07-25T05:06:28.575Z,100403.23
2018-07-25T05:08:56.896Z,100406.19
2018-07-25T05:11:25.296Z,100409.97
2018-07-25T05:13:53.609Z,100410.77
2018-07-25T05:16:21.972Z,100412.12
2018-07-25T05:18:50.378Z,100413.80
2018-07-25T05:21:18.701Z,100412.17
2018-07-25T05:23:47.024Z,100416.06
2018-07-25T05:26:15.377Z,100419.09
2018-07-25T05:28:43.696Z,100426.42
2018-07-25T05:31:12.044Z,100431.52
2018-07-25T05:33:40.608Z,100434.45
2018-07-25T05:38:36.399Z,100429.87
2018-07-25T05:41:05.085Z,100432.89
2018-07-25T05:43:33.501Z,100428.48
2018-07-25T05:46:01.852Z,100434.78
2018-07-25T05:48:30.308Z,100439.20
2018-07-25T05:50:58.869Z,100441.44
2018-07-25T05:53:27.167Z,100444.47
2018-07-25T05:55:55.499Z,100445.49
2018-07-25T05:58:23.811Z,100450.97
2018-07-25T06:00:52.191Z,100452.41
2018-07-25T06:03:20.543Z,100451.16
2018-07-25T06:05:48.935Z,100453.64
2018-07-25T06:08:17.213Z,100461.98
2018-07-25T06:10:45.597Z,100465.59
2018-07-25T06:13:14.040Z,100466.13
2018-07-25T06:15:43.437Z,100470.17
2018-07-25T06:18:15.493Z,100472.38
2018-07-25T06:20:43.948Z,100480.81
2018-07-25T06:23:13.153Z,100474.41
2018-07-25T06:25:42.624Z,100470.55
2018-07-25T06:28:11.087Z,100478.63
2018-07-25T06:30:39.562Z,100479.48
2018-07-25T06:33:08.024Z,100477.63
2018-07-25T06:35:36.361Z,100483.52
2018-07-25T06:38:04.755Z,100476.63
2018-07-25T06:40:33.318Z,100481.81
2018-07-25T06:43:01.744Z,100478.13
2018-07-25T06:45:30.200Z,100480.25
2018-07-25T06:47:58.566Z,100484.97
2018-07-25T06:50:27.420Z,100482.64
2018-07-25T06:52:56.043Z,100482.33
2018-07-25T06:55:24.497Z,100484.09
2018-07-25T06:57:53.100Z,100481.98
2018-07-25T07:00:21.667Z,100482.22
2018-07-25T07:02:50.068Z,100487.97
2018-07-25T07:05:18.376Z,100488.48
2018-07-25T07:07:46.726Z,100487.34
2018-07-25T07:10:15.077Z,100484.44
2018-07-25T07:12:43.403Z,100491.31
2018-07-25T07:15:13.012Z,100486.58
2018-07-25T07:17:42.068Z,100488.03
2018-07-25T07:20:10.548Z,100491.37
2018-07-25T07:22:38.908Z,100491.27
2018-07-25T07:25:09.740Z,100495.56
2018-07-25T07:27:43.343Z,100499.57
2018-07-25T07:30:11.671Z,100501.33
2018-07-25T07:32:40.003Z,100502.79
2018-07-25T07:35:08.365Z,100501.65
2018-07-25T07:37:37.751Z,100500.64
2018-07-25T07:40:06.077Z,100501.30
2018-07-25T07:42:34.458Z,100500.64
2018-07-25T07:45:02.837Z,100496.94
2018-07-25T07:47:31.248Z,100499.30
2018-07-25T07:49:59.530Z,100500.59
2018-07-25T07:52:27.855Z,100503.48
2018-07-25T07:54:56.178Z,100502.88
2018-07-25T07:57:24.537Z,100508.35
2018-07-25T07:59:52.963Z,100505.55
2018-07-25T08:02:21.385Z,100505.70
2018-07-25T08:04:49.724Z,100512.00
2018-07-25T08:07:18.001Z,100509.17
2018-07-25T08:09:46.341Z,100503.95
2018-07-25T08:12:15.196Z,100500.93
2018-07-25T08:14:43.489Z,100505.55
2018-07-25T08:17:11.843Z,100512.17
2018-07-25T08:19:40.243Z,100510.75
2018-07-25T08:22:08.847Z,100513.90
2018-07-25T08:24:37.182Z,100510.27
2018-07-25T08:27:05.555Z,100505.48
2018-07-25T08:29:33.891Z,100507.36
2018-07-25T08:32:02.271Z,100506.98
2018-07-25T08:34:30.624Z,100506.34
2018-07-25T08:36:58.969Z,100506.02
2018-07-25T08:39:27.293Z,100499.58
2018-07-25T08:41:55.578Z,100497.59
2018-07-25T08:44:23.914Z,100495.29
2018-07-25T08:46:52.302Z,100504.05
2018-07-25T08:49:20.585Z,100494.94
2018-07-25T08:51:48.883Z,100492.95
2018-07-25T08:54:17.200Z,100495.09
2018-07-25T08:56:45.546Z,100497.42
2018-07-25T08:59:13.954Z,100492.63
2018-07-25T09:01:42.340Z,100498.58
2018-07-25T09:04:10.816Z,100496.78
2018-07-25T09:06:39.532Z,100497.41
2018-07-25T09:09:10.313Z,100500.75
2018-07-25T09:11:38.763Z,100496.77
2018-07-25T09:14:07.187Z,100507.67
2018-07-25T09:16:35.610Z,100504.86
2018-07-25T09:19:04.354Z,100499.53
2018-07-25T09:21:33.153Z,100502.06
2018-07-25T09:24:01.627Z,100503.05
2018-07-25T09:26:30.253Z,100496.93
2018-07-25T09:28:58.747Z,100500.39
2018-07-25T09:31:27.324Z,100496.23
2018-07-25T09:33:55.929Z,100500.52
2018-07-25T09:36:24.581Z,100502.85
2018-07-25T09:38:53.151Z,100495.69
2018-07-25T09:41:21.851Z,100492.38
2018-07-25T09:43:50.433Z,100493.34
2018-07-25T09:46:19.058Z,100494.02
2018-07-25T09:48:47.515Z,100492.31
2018-07-25T09:51:16.012Z,100488.98
2018-07-25T09:53:44.490Z,100490.80
2018-07-25T09:56:13.167Z,100487.00
2018-07-25T09:58:42.552Z,100483.52
2018-07-25T10:01:11.131Z,100478.38
2018-07-25T10:03:39.688Z,100483.52
2018-07-25T10:06:08.247Z,100476.55
2018-07-25T10:08:36.718Z,100480.02
2018-07-25T10:11:05.463Z,100482.16
2018-07-25T10:13:34.103Z,100479.78
2018-07-25T10:16:02.781Z,100482.16
2018-07-25T10:18:31.305Z,100479.31
2018-07-25T10:20:59.907Z,100474.50
2018-07-25T10:23:28.535Z,100469.47
2018-07-25T10:25:57.869Z,100466.27
2018-07-25T10:28:26.581Z,100470.11
2018-07-25T10:30:55.198Z,100470.66
2018-07-25T10:33:23.735Z,100463.75
2018-07-25T10:35:52.502Z,100467.89
2018-07-25T10:38:21.203Z,100466.27
2018-07-25T10:40:49.879Z,100466.51
2018-07-25T10:43:18.386Z,100464.39
2018-07-25T10:45:47.937Z,100461.39
2018-07-25T10:48:16.394Z,100456.59
2018-07-25T10:50:45.039Z,100465.52
2018-07-25T10:53:13.599Z,100459.94
2018-07-25T10:55:42.117Z,100456.99
2018-07-25T10:58:10.667Z,100453.56
2018-07-25T11:00:39.150Z,100446.09
2018-07-25T11:03:07.856Z,100452.50
2018-07-25T11:05:36.354Z,100442.50
2018-07-25T11:08:04.927Z,100443.19
2018-07-25T11:10:33.508Z,100445.62
2018-07-25T11:13:02.073Z,100448.92
2018-07-25T11:15:30.751Z,100442.31
2018-07-25T11:17:59.495Z,100443.23
2018-07-25T11:20:28.075Z,100443.32
2018-07-25T11:22:56.604Z,100440.94
2018-07-25T11:25:25.125Z,100435.27
2018-07-25T11:27:53.700Z,100434.63
2018-07-25T11:30:22.219Z,100431.44
2018-07-25T11:32:50.806Z,100430.89
2018-07-25T11:35:19.431Z,100423.31
2018-07-25T11:37:47.925Z,100421.58
2018-07-25T11:40:16.502Z,100427.29
2018-07-25T11:42:45.023Z,100427.59
2018-07-25T11:45:13.477Z,100427.37
2018-07-25T11:47:41.848Z,100428.44
2018-07-25T11:50:10.708Z,100427.16
2018-07-25T11:52:39.733Z,100418.83
2018-07-25T11:55:08.206Z,100416.20
2018-07-25T11:57:36.687Z,100409.16
2018-07-25T12:00:05.374Z,100410.84
2018-07-25T12:02:33.902Z,100412.20
2018-07-25T12:05:02.922Z,100410.91
2018-07-25T12:07:31.403Z,100412.34
2018-07-25T12:09:59.973Z,100405.95
2018-07-25T12:12:28.498Z,100408.44
2018-07-25T12:14:57.434Z,100408.09
2018-07-25T12:17:25.953Z,100410.66
2018-07-25T12:19:54.551Z,100402.02
2018-07-25T12:22:23.153Z,100410.72
2018-07-25T12:24:51.634Z,100408.27
2018-07-25T12:27:20.107Z,100402.38
2018-07-25T12:29:48.763Z,100400.81
2018-07-25T12:32:18.040Z,100401.08
2018-07-25T12:34:46.731Z,100389.66
2018-07-25T12:37:15.844Z,100395.67
2018-07-25T12:39:44.321Z,100398.13
2018-07-25T12:42:12.770Z,100391.22
2018-07-25T12:44:42.427Z,100389.73
2018-07-25T12:47:11.011Z,100392.14
2018-07-25T12:49:39.788Z,100394.48
2018-07-25T12:52:08.766Z,100388.09
2018-07-25T12:54:37.378Z,100387.58
2018-07-25T12:57:05.950Z,100384.73
2018-07-25T12:59:34.622Z,100385.30
2018-07-25T13:02:03.237Z,100373.98
2018-07-25T13:04:31.749Z,100372.46
2018-07-25T13:07:00.119Z,100370.32
2018-07-25T13:09:28.524Z,100372.05
2018-07-25T13:11:56.927Z,100382.12
2018-07-25T13:14:25.738Z,100374.59
2018-07-25T13:16:54.449Z,100368.10
2018-07-25T13:19:23.018Z,100370.25
2018-07-25T13:21:51.520Z,100368.39
2018-07-25T13:24:20.043Z,100371.59
2018-07-25T13:26:48.851Z,100369.62
2018-07-25T13:29:17.240Z,100367.94
2018-07-25T13:31:45.714Z,100364.61
2018-07-25T13:34:14.186Z,100368.77
2018-07-25T13:36:42.798Z,100367.80
2018-07-25T13:39:11.167Z,100366.34
2018-07-25T13:41:39.704Z,100362.97
2018-07-25T13:44:08.423Z,100358.45
2018-07-25T13:46:36.898Z,100367.74
2018-07-25T13:49:05.477Z,100360.83
2018-07-25T13:51:34.889Z,100358.27
2018-07-25T13:54:04.110Z,100348.08
2018-07-25T13:56:32.618Z,100350.27
2018-07-25T13:59:01.006Z,100338.05
2018-07-25T14:01:29.480Z,100335.70
2018-07-25T14:03:57.963Z,100335.98
2018-07-25T14:06:27.886Z,100332.05
2018-07-25T14:08:56.355Z,100336.59
2018-07-25T14:11:24.996Z,100332.71
2018-07-25T14:13:54.685Z,100338.70
2018-07-25T14:16:23.121Z,100335.87
2018-07-25T14:18:51.667Z,100352.39
2018-07-25T14:21:21.536Z,100336.80
2018-07-25T14:23:50.045Z,100338.46
2018-07-25T14:26:18.340Z,100333.16
2018-07-25T14:28:47.078Z,100338.81
2018-07-25T14:31:15.467Z,100335.83
2018-07-25T14:33:43.926Z,100329.50
2018-07-25T14:36:12.462Z,100331.20
2018-07-25T14:38:40.791Z,100337.16
2018-07-25T14:41:09.286Z,100329.38
2018-07-25T14:43:37.884Z,100331.75
2018-07-25T14:46:07.126Z,100326.58
2018-07-25T14:48:35.780Z,100328.05
2018-07-25T14:51:04.263Z,100325.52
2018-07-25T14:53:33.466Z,100316.16
2018-07-25T14:56:05.559Z,100322.92
2018-07-25T14:58:35.854Z,100322.37
2018-07-25T15:01:05.106Z,100318.80
2018-07-25T15:03:33.528Z,100324.69
2018-07-25T15:06:02.307Z,100319.46
2018-07-25T15:08:31.057Z,100319.02
2018-07-25T15:10:59.551Z,100317.41
2018-07-25T15:13:28.455Z,100320.85
2018-07-25T15:15:57.275Z,100322.53
2018-07-25T15:18:27.352Z,100329.02
2018-07-25T15:20:56.733Z,100321.75
2018-07-25T15:23:36.449Z,100325.94
2018-07-25T15:26:06.334Z,100322.27
2018-07-25T15:28:36.735Z,100319.73
2018-07-25T15:31:05.765Z,100315.57
2018-07-25T15:33:35.484Z,100320.17
2018-07-25T15:36:04.054Z,100320.83
2018-07-25T15:38:35.054Z,100326.47
2018-07-25T15:41:05.519Z,100327.84
2018-07-25T15:43:34.412Z,100326.38
2018-07-25T15:46:03.472Z,100325.84
2018-07-25T15:48:31.867Z,100317.55
2018-07-25T15:51:01.756Z,100321.21
2018-07-25T15:53:30.250Z,100323.55
2018-07-25T15:55:59.038Z,100323.71
2018-07-25T15:58:27.417Z,100318.34
2018-07-25T16:00:57.591Z,100316.59
2018-07-25T16:03:29.437Z,100321.81
2018-07-25T16:05:58.746Z,100327.84
2018-07-25T16:08:28.400Z,100329.73
2018-07-25T16:10:58.266Z,100318.66
2018-07-25T16:13:27.319Z,100317.77
2018-07-25T16:15:57.866Z,100311.70
2018-07-25T16:18:32.507Z,100308.69
2018-07-25T16:21:04.919Z,100301.84
2018-07-25T16:23:35.211Z,100301.81
2018-07-25T16:26:06.544Z,100300.92
2018-07-25T16:28:35.293Z,100296.01
2018-07-25T16:31:04.755Z,100299.44
2018-07-25T16:33:34.727Z,100288.24
2018-07-25T16:36:03.293Z,100284.41
2018-07-25T16:38:32.774Z,100289.04
2018-07-25T16:41:03.017Z,100293.67
2018-07-25T16:43:32.973Z,100296.01
2018-07-25T16:46:04.785Z,100289.38
2018-07-25T16:48:37.249Z,100295.95
2018-07-25T16:51:07.527Z,100300.61
2018-07-25T16:53:38.541Z,100297.33
2018-07-25T16:56:07.726Z,100292.02
2018-07-25T16:58:37.677Z,100293.23
2018-07-25T17:01:06.889Z,100297.44
2018-07-25T17:03:35.928Z,100293.19
2018-07-25T17:06:04.960Z,100294.41
2018-07-25T17:08:33.412Z,100308.02
2018-07-25T17:11:02.262Z,100304.47
2018-07-25T17:13:31.664Z,100305.99
2018-07-25T17:16:00.849Z,100300.39
2018-07-25T17:18:29.838Z,100311.32
2018-07-25T17:20:58.563Z,100311.32
2018-07-25T17:23:27.452Z,100311.48
2018-07-25T17:25:57.257Z,100309.55
2018-07-25T17:28:25.851Z,100313.09
2018-07-25T17:30:54.926Z,100314.77
2018-07-25T17:33:24.078Z,100322.09
2018-07-25T17:35:52.966Z,100319.15
2018-07-25T17:38:22.050Z,100325.64
2018-07-25T17:40:50.974Z,100323.15
2018-07-25T17:43:19.976Z,100322.48
2018-07-25T17:45:50.265Z,100330.12
2018-07-25T17:48:18.932Z,100328.66
2018-07-25T17:50:48.085Z,100332.00
2018-07-25T17:53:16.662Z,100332.52
2018-07-25T17:55:45.389Z,100335.83
2018-07-25T17:58:14.666Z,100348.58
2018-07-25T18:00:43.241Z,100339.81
2018-07-25T18:03:12.449Z,100345.78
2018-07-25T18:05:41.429Z,100348.59
2018-07-25T18:08:10.139Z,100342.83
2018-07-25T18:10:39.065Z,100348.92
2018-07-25T18:14:16.951Z,100349.73
2018-07-25T18:16:46.155Z,100346.43
2018-07-25T18:19:16.023Z,100354.22
2018-07-25T18:21:44.627Z,100361.02
2018-07-25T18:24:13.715Z,100362.66
2018-07-25T18:26:42.298Z,100362.50
2018-07-25T18:29:11.181Z,100367.62
2018-07-25T18:31:40.259Z,100362.83
2018-07-25T18:34:09.150Z,100373.56
2018-07-25T18:36:37.855Z,100371.21
2018-07-25T18:39:09.551Z,100375.33
2018-07-25T18:41:38.598Z,100372.50
2018-07-25T18:44:07.374Z,100367.88
2018-07-25T18:46:36.086Z,100367.50
2018-07-25T18:49:04.645Z,100364.83
2018-07-25T18:51:33.360Z,100368.63
2018-07-25T18:54:02.035Z,100365.60
2018-07-25T18:56:31.024Z,100365.06
2018-07-25T18:58:59.740Z,100362.40
2018-07-25T19:01:28.426Z,100364.53
2018-07-25T19:03:56.835Z,100364.81
2018-07-25T19:06:25.393Z,100366.97
2018-07-25T19:08:54.021Z,100370.88
2018-07-25T19:11:22.872Z,100374.14
2018-07-25T19:13:56.524Z,100373.44
2018-07-25T19:16:25.044Z,100375.35
2018-07-25T19:18:53.523Z,100381.75
2018-07-25T19:21:23.290Z,100388.97
2018-07-25T19:23:52.393Z,100378.84
2018-07-25T19:26:21.112Z,100388.41
2018-07-25T19:28:49.651Z,100390.66
2018-07-25T19:31:18.648Z,100390.19
2018-07-25T19:33:47.506Z,100395.97
2018-07-25T19:36:16.660Z,100397.75
2018-07-25T19:38:45.518Z,100396.32
2018-07-25T19:41:14.972Z,100400.84
2018-07-25T19:43:43.840Z,100401.97
2018-07-25T19:46:12.703Z,100412.02
2018-07-25T19:48:41.347Z,100416.23
2018-07-25T19:51:10.288Z,100414.69
2018-07-25T19:53:39.105Z,100417.69
2018-07-25T19:56:07.765Z,100416.09
2018-07-25T19:58:36.275Z,100415.72
2018-07-25T20:01:04.899Z,100410.70
2018-07-25T20:03:33.439Z,100417.63
2018-07-25T20:06:02.943Z,100423.58
2018-07-25T20:08:31.562Z,100424.78
2018-07-25T20:11:00.066Z,100417.35
2018-07-25T20:13:31.230Z,100424.12
2018-07-25T20:16:00.923Z,100421.16
2018-07-25T20:18:30.463Z,100421.72
2018-07-25T20:20:59.459Z,100425.73
2018-07-25T20:23:28.576Z,100430.30
2018-07-25T20:25:56.937Z,100427.37
2018-07-25T20:28:25.551Z,100426.48
2018-07-25T20:30:54.226Z,100428.50
2018-07-25T20:33:22.696Z,100436.66
2018-07-25T20:35:51.144Z,100434.42
2018-07-25T20:38:19.597Z,100434.39
2018-07-25T20:40:48.194Z,100431.13
2018-07-25T20:43:16.603Z,100438.66
2018-07-25T20:45:45.282Z,100436.33
2018-07-25T20:48:13.742Z,100439.22
2018-07-25T20:50:42.113Z,100437.64
2018-07-25T20:53:10.669Z,100439.58
2018-07-25T20:55:39.166Z,100437.91
2018-07-25T20:58:07.758Z,100435.01
2018-07-25T21:00:36.768Z,100445.27
2018-07-25T21:03:06.814Z,100440.42
2018-07-25T21:05:35.536Z,100437.52
2018-07-25T21:08:04.003Z,100442.09
2018-07-25T21:10:34.177Z,100444.54
2018-07-25T21:13:04.673Z,100447.84
2018-07-25T21:15:34.321Z,100447.69
2018-07-25T21:18:03.090Z,100449.22
2018-07-25T21:20:31.406Z,100452.55
2018-07-25T21:22:59.754Z,100454.31
2018-07-25T21:25:30.067Z,100452.22
2018-07-25T21:27:58.726Z,100459.36
2018-07-25T21:30:27.354Z,100461.62
2018-07-25T21:32:58.503Z,100460.22
2018-07-25T21:35:26.803Z,100466.75
2018-07-25T21:37:57.782Z,100462.68
2018-07-25T21:40:26.162Z,100462.75
2018-07-25T21:42:54.808Z,100473.38
2018-07-25T21:45:23.162Z,100479.19
2018-07-25T21:47:53.843Z,100477.81
2018-07-25T21:50:22.830Z,100480.75
2018-07-25T21:52:51.830Z,100476.47
2018-07-25T21:55:20.430Z,100479.28
2018-07-25T21:57:49.039Z,100480.77
2018-07-25T22:00:17.830Z,100482.72
2018-07-25T22:02:47.008Z,100482.50
2018-07-25T22:05:15.606Z,100483.84
2018-07-25T22:07:45.306Z,100481.08
2018-07-25T22:10:13.699Z,100487.92
2018-07-25T22:12:42.414Z,100489.44
2018-07-25T22:15:12.086Z,100492.13
2018-07-25T22:17:40.452Z,100486.30
2018-07-25T22:20:11.696Z,100492.03
2018-07-25T22:22:40.865Z,100494.22
2018-07-25T22:25:09.918Z,100494.02
2018-07-25T22:27:40.829Z,100499.04
2018-07-25T22:30:09.365Z,100492.22
2018-07-25T22:32:37.783Z,100499.05
2018-07-25T22:35:07.173Z,100502.17
2018-07-25T22:37:36.725Z,100499.33
2018-07-25T22:40:05.389Z,100496.86
2018-07-25T22:42:34.403Z,100492.11
2018-07-25T22:45:03.271Z,100499.00
2018-07-25T22:47:31.631Z,100498.30
2018-07-25T22:50:00.242Z,100492.59
2018-07-25T22:52:29.245Z,100494.87
2018-07-25T22:54:58.256Z,100494.77
2018-07-25T22:57:27.110Z,100493.59
2018-07-25T22:59:56.230Z,100492.50
2018-07-25T23:02:24.583Z,100497.52
2018-07-25T23:04:53.446Z,100491.32
2018-07-25T23:07:22.231Z,100497.30
2018-07-25T23:09:50.752Z,100495.98
2018-07-25T23:12:19.738Z,100501.47
2018-07-25T23:14:48.567Z,100506.23
2018-07-25T23:17:16.936Z,100498.44
2018-07-25T23:19:46.355Z,100500.34
2018-07-25T23:22:15.138Z,100507.03
2018-07-25T23:24:44.828Z,100505.02
2018-07-25T23:27:13.466Z,100503.94
2018-07-25T23:29:41.883Z,100495.25
2018-07-25T23:32:14.726Z,100502.63
2018-07-25T23:34:43.837Z,100498.80
2018-07-25T23:37:12.278Z,100496.56
2018-07-25T23:39:40.576Z,100499.04
2018-07-25T23:42:08.890Z,100497.38
2018-07-25T23:44:37.277Z,100493.94
2018-07-25T23:47:05.636Z,100498.21
2018-07-25T23:49:33.976Z,100491.91
2018-07-25T23:52:02.348Z,100495.47
2018-07-25T23:54:30.657Z,100494.64
2018-07-25T23:56:59.049Z,100500.36
2018-07-25T23:59:27.398Z,100495.13
